Time;durP1;ratioP1;P1;durP2;ratioP2;P2;SDS_P1;SDS_P2;PMS_P1;PMS_P2;Temp;Humidity;BMP_temperature;BMP_pressure;BME280_temperature;BME280_humidity;BME280_pressure;Samples;Min_cycle;Max_cycle;Signal;HPM_P1;HPM_P2
2022/05/11 00:01:26;;;;;;;5.57;2.42;;;;;;;18.49;33.11;100342.50;5072385;28;20033;-66
2022/05/11 00:03:52;;;;;;;3.25;1.85;;;;;;;18.49;33.14;100338.03;5072928;28;20037;-66
2022/05/11 00:06:18;;;;;;;3.22;2.10;;;;;;;18.47;33.26;100334.59;5056018;28;20064;-66
2022/05/11 00:08:44;;;;;;;4.75;2.30;;;;;;;18.49;33.25;100329.22;5074622;28;20033;-66
2022/05/11 00:11:09;;;;;;;4.32;1.92;;;;;;;18.49;33.23;100331.88;5074521;28;20034;-66
2022/05/11 00:13:35;;;;;;;4.35;2.05;;;;;;;18.47;33.36;100329.28;5073386;28;20123;-66
2022/05/11 00:16:01;;;;;;;5.50;2.60;;;;;;;18.45;33.41;100328.53;5073498;28;20546;-67
2022/05/11 00:18:26;;;;;;;3.70;2.53;;;;;;;18.48;33.49;100319.53;5072957;28;20017;-69
2022/05/11 00:20:52;;;;;;;4.95;2.38;;;;;;;18.44;33.54;100314.38;5074518;28;20103;-69
2022/05/11 00:23:17;;;;;;;3.92;2.22;;;;;;;18.44;33.57;100314.38;5074436;28;20090;-69
2022/05/11 00:25:44;;;;;;;3.80;2.50;;;;;;;18.41;33.64;100309.19;5072912;28;20072;-68
2022/05/11 00:28:11;;;;;;;4.43;2.40;;;;;;;18.41;33.67;100319.84;5072582;28;20058;-67
2022/05/11 00:30:36;;;;;;;7.05;2.38;;;;;;;18.38;33.80;100304.03;5072690;28;20468;-66
2022/05/11 00:33:02;;;;;;;6.15;2.50;;;;;;;18.37;33.84;100305.00;5074563;28;20039;-67
2022/05/11 00:35:33;;;;;;;5.65;2.45;;;;;;;18.37;33.80;100301.47;5056525;28;20082;-66
2022/05/11 00:37:58;;;;;;;6.15;2.78;;;;;;;18.36;33.91;100295.31;5074291;28;20033;-67
2022/05/11 00:40:25;;;;;;;4.35;2.42;;;;;;;18.38;34.05;100298.72;5072609;28;20094;-67
2022/05/11 00:42:50;;;;;;;6.47;2.83;;;;;;;18.37;34.06;100297.00;5073697;28;20020;-67
2022/05/11 00:45:16;;;;;;;6.70;2.70;;;;;;;18.34;34.11;100297.19;5055865;28;20036;-67
2022/05/11 00:47:46;;;;;;;5.82;2.67;;;;;;;18.29;34.21;100295.72;5055918;28;20033;-67
2022/05/11 00:50:21;;;;;;;5.63;2.60;;;;;;;18.29;34.16;100293.06;5072665;28;20403;-67
2022/05/11 00:52:58;;;;;;;5.40;2.30;;;;;;;18.29;34.19;100293.06;5074182;28;20028;-67
2022/05/11 00:55:35;;;;;;;7.97;3.25;;;;;;;18.31;34.32;100286.72;5072420;28;20028;-67
2022/05/11 00:58:22;;;;;;;5.03;2.33;;;;;;;18.34;34.18;100296.31;5072655;28;20028;-67
2022/05/11 01:00:48;;;;;;;4.95;2.45;;;;;;;18.30;34.39;100279.66;5072382;28;20036;-67
2022/05/11 01:03:17;;;;;;;6.32;2.45;;;;;;;18.34;34.45;100275.03;5072321;28;20032;-67
2022/05/11 01:05:44;;;;;;;3.47;2.53;;;;;;;18.31;34.53;100273.44;5072176;28;20028;-67
2022/05/11 01:08:13;;;;;;;5.75;2.45;;;;;;;18.31;34.59;100268.13;5072174;28;20029;-67
2022/05/11 01:10:40;;;;;;;4.80;2.30;;;;;;;18.30;34.67;100261.06;5072250;28;20041;-67
2022/05/11 01:13:09;;;;;;;4.60;2.70;;;;;;;18.30;34.82;100254.88;5055471;28;20028;-67
2022/05/11 01:15:35;;;;;;;5.00;2.85;;;;;;;18.29;34.98;100261.16;5073314;28;20530;-67
2022/05/11 01:18:06;;;;;;;5.22;2.85;;;;;;;18.27;34.90;100255.03;5073312;28;20060;-67
2022/05/11 01:20:35;;;;;;;6.25;2.78;;;;;;;18.27;35.13;100258.56;5071406;28;20051;-67
2022/05/11 01:23:03;;;;;;;6.03;2.95;;;;;;;18.27;35.06;100250.59;5072836;28;20035;-67
2022/05/11 01:25:30;;;;;;;6.07;2.40;;;;;;;18.27;35.12;100245.25;5073448;28;20040;-67
2022/05/11 01:28:05;;;;;;;6.22;2.63;;;;;;;18.27;35.04;100237.28;5055500;28;20135;-67
2022/05/11 01:30:31;;;;;;;5.63;2.85;;;;;;;18.26;35.24;100230.25;5072145;28;20081;-67
2022/05/11 01:32:57;;;;;;;6.25;3.25;;;;;;;18.28;35.22;100236.38;5071321;28;20125;-67
2022/05/11 01:35:41;;;;;;;5.97;2.72;;;;;;;18.27;35.29;100231.13;5073779;28;20479;-66
2022/05/11 01:38:14;;;;;;;5.35;3.05;;;;;;;18.23;35.37;100225.09;5073455;28;20053;-66
2022/05/11 01:40:40;;;;;;;5.55;3.10;;;;;;;18.22;35.32;100220.72;5075527;28;20518;-68
2022/05/11 01:43:06;;;;;;;5.32;3.00;;;;;;;18.23;35.43;100214.47;5076013;28;20071;-66
2022/05/11 01:45:32;;;;;;;5.15;2.55;;;;;;;18.24;35.56;100216.22;5077227;28;20036;-66
2022/05/11 01:47:58;;;;;;;4.95;2.67;;;;;;;18.24;35.57;100220.66;5076055;28;20135;-66
2022/05/11 01:50:25;;;;;;;8.13;3.00;;;;;;;18.20;35.60;100206.69;5075980;28;20043;-66
2022/05/11 01:52:50;;;;;;;6.75;2.92;;;;;;;18.21;35.66;100211.06;5075904;28;20115;-68
2022/05/11 01:55:16;;;;;;;5.55;2.45;;;;;;;18.19;35.91;100212.91;5077117;28;20158;-66
2022/05/11 01:57:42;;;;;;;5.22;2.35;;;;;;;18.21;35.89;100227.00;5076997;28;20041;-66
2022/05/11 02:00:09;;;;;;;4.75;2.80;;;;;;;18.25;35.89;100211.75;5075426;28;20475;-65
2022/05/11 02:02:34;;;;;;;10.15;2.97;;;;;;;18.24;35.92;100240.13;5075305;28;20033;-66
2022/05/11 02:07:49;;;;;;;6.45;2.83;;;;;;;17.98;36.50;100255.69;5075401;28;20067;-66
2022/05/11 02:10:19;;;;;;;6.75;3.30;;;;;;;17.97;36.28;100255.78;5075282;28;20089;-67
2022/05/11 02:12:45;;;;;;;8.70;3.00;;;;;;;18.01;36.48;100253.84;5058734;28;20511;-67
2022/05/11 02:15:14;;;;;;;5.88;3.10;;;;;;;18.04;36.48;100259.00;5075599;28;20027;-69
2022/05/11 02:17:41;;;;;;;7.03;3.65;;;;;;;18.03;36.43;100247.47;5075343;28;20085;-68
2022/05/11 02:20:07;;;;;;;6.32;3.30;;;;;;;17.88;36.79;100254.50;5058691;28;20025;-68
2022/05/11 02:22:32;;;;;;;5.13;2.90;;;;;;;17.85;36.93;100256.47;5075202;28;20029;-68
2022/05/11 02:24:58;;;;;;;7.10;3.50;;;;;;;17.81;36.95;100258.41;5076429;28;20043;-67
2022/05/11 02:27:23;;;;;;;6.38;3.05;;;;;;;17.77;37.26;100243.59;5076307;28;20127;-67
2022/05/11 02:29:49;;;;;;;5.00;2.95;;;;;;;17.67;37.49;100244.97;5076398;28;20388;-68
2022/05/11 02:32:15;;;;;;;7.05;3.10;;;;;;;17.77;37.24;100248.91;5075132;28;20084;-68
2022/05/11 02:37:24;;;;;;;4.75;2.42;;;;;;;17.85;37.25;100235.19;5074679;28;20039;-67
2022/05/11 02:39:50;;;;;;;8.38;2.92;;;;;;;17.88;37.24;100230.56;5076060;28;20033;-67
2022/05/11 02:42:18;;;;;;;6.75;3.20;;;;;;;17.88;37.19;100238.56;5075169;28;20037;-68
2022/05/11 02:44:44;;;;;;;7.93;3.33;;;;;;;17.88;37.30;100230.56;5074415;28;20044;-68
2022/05/11 02:47:09;;;;;;;5.00;3.00;;;;;;;17.92;37.31;100212.66;5075559;28;20041;-68
2022/05/11 02:49:35;;;;;;;5.35;3.42;;;;;;;17.96;37.22;100216.88;5075031;28;20064;-67
2022/05/11 02:52:00;;;;;;;4.97;2.90;;;;;;;18.02;37.18;100213.00;5075126;28;20040;-67
2022/05/11 02:54:26;;;;;;;6.18;2.75;;;;;;;18.05;37.20;100218.16;5074976;28;20089;-65
2022/05/11 02:56:51;;;;;;;6.07;3.25;;;;;;;17.99;37.44;100216.69;5040563;28;20037;-68
2022/05/11 02:59:17;;;;;;;5.28;2.83;;;;;;;18.01;37.66;100209.50;5075158;28;20090;-67
2022/05/11 03:01:43;;;;;;;6.47;3.03;;;;;;;18.04;37.64;100197.84;5073545;28;20060;-68
2022/05/11 03:04:09;;;;;;;5.05;3.10;;;;;;;18.03;37.79;100196.09;5075208;28;20032;-67
2022/05/11 03:06:34;;;;;;;8.35;3.30;;;;;;;18.02;37.74;100189.94;5074316;28;20052;-68
2022/05/11 03:09:00;;;;;;;8.27;2.80;;;;;;;18.10;37.72;100189.50;5074897;28;20048;-68
2022/05/11 03:11:25;;;;;;;5.47;3.28;;;;;;;18.10;37.69;100186.84;5074678;28;20028;-68
2022/05/11 03:13:52;;;;;;;8.00;2.50;;;;;;;18.08;37.81;100173.66;5074811;28;20098;-68
2022/05/11 03:16:17;;;;;;;5.68;2.85;;;;;;;18.13;37.73;100174.25;5074887;28;20028;-68
2022/05/11 03:18:43;;;;;;;6.93;2.55;;;;;;;18.15;37.66;100169.72;5072757;28;20086;-67
2022/05/11 03:21:08;;;;;;;6.45;3.58;;;;;;;18.15;37.85;100182.13;5075134;28;20032;-68
2022/05/11 03:23:34;;;;;;;6.03;3.08;;;;;;;18.11;37.99;100177.94;5076596;28;20131;-68
2022/05/11 03:26:00;;;;;;;7.07;3.10;;;;;;;18.14;37.98;100189.25;5056581;28;20035;-68
2022/05/11 03:28:26;;;;;;;5.45;3.00;;;;;;;18.16;38.00;100183.88;5072239;28;20107;-67
2022/05/11 03:30:51;;;;;;;6.18;3.22;;;;;;;18.17;38.06;100177.59;5056025;28;20036;-67
2022/05/11 03:36:02;;;;;;;6.05;2.60;;;;;;;18.23;38.14;100174.56;5073157;28;20050;-67
2022/05/11 03:38:27;;;;;;;8.00;3.08;;;;;;;18.28;38.21;100191.16;5073208;28;20041;-68
2022/05/11 03:40:52;;;;;;;6.25;3.33;;;;;;;18.27;38.27;100208.03;5071854;28;20024;-69
2022/05/11 03:43:18;;;;;;;6.78;3.40;;;;;;;17.96;39.03;100239.00;5074798;28;20044;-69
2022/05/11 03:45:45;;;;;;;8.43;3.40;;;;;;;17.81;39.43;100254.91;5074819;28;20094;-69
2022/05/11 03:48:11;;;;;;;6.22;3.38;;;;;;;17.71;39.46;100241.19;5077080;28;20406;-69
2022/05/11 03:50:38;;;;;;;6.68;3.50;;;;;;;17.65;39.91;100257.50;5074867;28;20124;-68
2022/05/11 03:53:03;;;;;;;7.90;3.10;;;;;;;17.65;39.94;100255.69;5073800;28;20483;-69
2022/05/11 03:55:29;;;;;;;10.10;3.72;;;;;;;17.58;40.08;100248.13;5089848;28;20487;-68
2022/05/11 03:57:55;;;;;;;10.18;4.10;;;;;;;17.49;40.45;100260.09;5094901;28;20032;-68
2022/05/11 04:00:23;;;;;;;6.05;3.33;;;;;;;17.53;40.36;100261.66;5075076;28;20044;-68
2022/05/11 04:02:53;;;;;;;5.53;3.53;;;;;;;17.52;40.82;100248.47;5092633;28;20032;-69
2022/05/11 04:05:19;;;;;;;6.55;3.55;;;;;;;17.42;41.14;100256.03;5089139;28;20036;-68
2022/05/11 04:07:45;;;;;;;5.30;3.20;;;;;;;17.37;41.70;100253.63;5073170;28;20052;-69
2022/05/11 04:10:13;;;;;;;7.30;3.33;;;;;;;17.39;42.19;100245.56;5073613;28;20041;-70
2022/05/11 04:12:38;;;;;;;10.95;3.63;;;;;;;17.47;42.65;100236.28;5056384;28;20037;-68
2022/05/11 04:15:05;;;;;;;7.57;3.83;;;;;;;17.60;42.88;100251.56;5073141;28;20055;-69
2022/05/11 04:17:31;;;;;;;7.03;3.72;;;;;;;17.59;42.98;100244.50;5074158;28;20086;-68
2022/05/11 04:19:57;;;;;;;7.22;4.15;;;;;;;17.60;43.60;100252.41;5072431;28;20033;-68
2022/05/11 04:22:22;;;;;;;7.35;4.25;;;;;;;17.50;44.23;100261.81;5077290;28;20119;-68
2022/05/11 04:24:48;;;;;;;6.40;3.60;;;;;;;17.38;44.48;100255.31;5041768;28;20480;-68
2022/05/11 04:27:13;;;;;;;10.18;3.75;;;;;;;17.43;44.69;100258.63;5072463;28;20041;-68
2022/05/11 04:29:40;;;;;;;5.78;4.25;;;;;;;17.48;45.49;100245.09;5056651;28;20036;-67
2022/05/11 04:32:06;;;;;;;8.65;3.88;;;;;;;17.54;44.90;100238.59;5072952;28;20041;-67
2022/05/11 04:34:31;;;;;;;7.70;3.70;;;;;;;17.69;44.69;100237.78;5069777;28;20032;-67
2022/05/11 04:36:57;;;;;;;8.68;4.05;;;;;;;17.82;44.69;100236.22;5059673;28;20037;-68
2022/05/11 04:39:22;;;;;;;9.82;4.50;;;;;;;17.86;44.78;100227.13;5071454;28;20033;-68
2022/05/11 04:41:47;;;;;;;9.27;4.32;;;;;;;17.86;45.03;100232.44;5072785;28;20033;-69
2022/05/11 04:44:13;;;;;;;10.32;3.78;;;;;;;17.92;45.07;100221.50;5072687;28;20060;-68
2022/05/11 04:46:39;;;;;;;8.57;4.10;;;;;;;17.94;45.12;100226.72;5073810;28;20033;-70
2022/05/11 04:49:21;;;;;;;9.38;4.90;;;;;;;18.01;45.26;100227.25;5072327;28;20028;-69
2022/05/11 04:51:48;;;;;;;7.65;3.95;;;;;;;18.09;45.04;100225.88;5073840;28;20059;-69
2022/05/11 04:54:14;;;;;;;10.07;4.38;;;;;;;18.08;45.20;100220.66;5071890;28;20036;-67
2022/05/11 04:56:40;;;;;;;8.20;4.70;;;;;;;18.13;45.21;100213.28;5074405;28;20036;-67
2022/05/11 04:59:07;;;;;;;7.97;4.13;;;;;;;18.15;45.35;100225.56;5069332;28;20498;-67
2022/05/11 05:01:33;;;;;;;7.75;4.45;;;;;;;18.16;45.35;100221.09;5071697;28;20051;-66
2022/05/11 05:03:59;;;;;;;8.43;4.40;;;;;;;18.20;45.44;100231.47;5072073;28;20036;-66
2022/05/11 05:06:24;;;;;;;9.48;4.50;;;;;;;18.10;45.81;100235.56;5071783;28;20048;-65
2022/05/11 05:08:52;;;;;;;8.55;5.00;;;;;;;18.16;45.88;100234.38;5076517;28;20041;-65
2022/05/11 05:11:18;;;;;;;10.48;4.80;;;;;;;18.24;46.00;100232.16;5069379;28;20387;-66
2022/05/11 05:13:43;;;;;;;7.47;4.88;;;;;;;18.33;46.08;100236.97;5072270;28;20043;-66
2022/05/11 05:16:09;;;;;;;9.10;4.75;;;;;;;18.44;46.27;100239.88;5071331;28;20036;-66
2022/05/11 05:18:35;;;;;;;7.78;5.07;;;;;;;18.54;45.92;100239.34;5072283;28;20155;-66
2022/05/11 05:21:01;;;;;;;10.00;5.45;;;;;;;18.58;46.05;100236.41;5072492;28;20040;-65
2022/05/11 05:23:26;;;;;;;10.18;5.15;;;;;;;18.71;46.08;100236.59;5051240;28;20052;-65
2022/05/11 05:25:52;;;;;;;11.70;6.10;;;;;;;18.73;46.12;100228.53;5072429;28;20024;-66
2022/05/11 05:31:08;;;;;;;7.43;5.25;;;;;;;18.87;46.18;100221.47;5070989;28;20066;-67
2022/05/11 05:33:35;;;;;;;7.18;4.88;;;;;;;18.95;46.23;100227.22;5070916;28;20033;-67
2022/05/11 05:36:02;;;;;;;9.55;5.70;;;;;;;19.05;46.27;100224.00;5074061;28;20032;-67
2022/05/11 05:38:28;;;;;;;11.10;5.78;;;;;;;19.10;46.54;100224.56;5071092;28;20037;-66
2022/05/11 05:40:54;;;;;;;9.55;5.53;;;;;;;19.14;46.46;100228.78;5050584;28;20465;-67
2022/05/11 05:43:24;;;;;;;7.68;5.15;;;;;;;19.21;46.36;100222.13;5071454;28;20028;-67
2022/05/11 05:45:52;;;;;;;9.93;5.75;;;;;;;19.38;46.32;100213.13;5070710;28;20032;-67
2022/05/11 05:48:22;;;;;;;8.57;6.07;;;;;;;19.48;46.86;100218.75;5071181;28;20067;-67
2022/05/11 05:50:49;;;;;;;11.50;5.82;;;;;;;19.48;46.67;100216.94;5053686;28;20028;-67
2022/05/11 05:53:19;;;;;;;12.27;5.97;;;;;;;19.54;46.96;100221.88;5071319;28;20085;-66
2022/05/11 05:55:49;;;;;;;9.73;6.38;;;;;;;19.65;46.95;100218.59;5070678;28;20060;-66
2022/05/11 05:58:16;;;;;;;10.05;6.43;;;;;;;19.78;46.72;100214.22;5070922;28;20056;-66
2022/05/11 06:00:42;;;;;;;14.30;6.32;;;;;;;19.90;46.81;100217.94;5068245;28;20106;-66
2022/05/11 06:03:08;;;;;;;14.15;7.10;;;;;;;19.98;46.86;100214.78;5079622;28;20136;-66
2022/05/11 06:05:33;;;;;;;13.27;7.30;;;;;;;20.07;47.02;100216.88;5066598;28;20458;-66
2022/05/11 06:07:59;;;;;;;8.73;5.75;;;;;;;20.14;47.11;100215.50;5030082;28;20129;-66
2022/05/11 06:10:25;;;;;;;10.55;6.10;;;;;;;20.15;47.19;100201.25;5054255;28;20119;-65
2022/05/11 06:12:52;;;;;;;10.75;5.13;;;;;;;20.20;47.10;100182.28;5071503;28;20119;-66
2022/05/11 06:15:18;;;;;;;6.70;4.80;;;;;;;20.28;46.78;100196.81;5070970;28;20032;-65
2022/05/11 06:17:43;;;;;;;9.10;5.25;;;;;;;20.40;46.66;100197.84;5071577;28;20029;-66
2022/05/11 06:20:09;;;;;;;9.63;5.57;;;;;;;20.55;46.45;100206.69;5071980;28;20032;-66
2022/05/11 06:22:36;;;;;;;8.25;5.32;;;;;;;20.72;46.27;100213.59;5070091;28;20128;-66
2022/05/11 06:25:03;;;;;;;8.15;4.53;;;;;;;20.83;46.17;100209.25;5069959;28;20033;-66
2022/05/11 06:27:29;;;;;;;8.23;4.85;;;;;;;20.91;46.01;100201.56;5056081;28;20036;-66
2022/05/11 06:30:00;;;;;;;10.00;5.55;;;;;;;21.06;46.03;100201.47;5072346;28;20029;-66
2022/05/11 06:32:26;;;;;;;9.85;5.10;;;;;;;21.22;45.70;100203.94;5072591;28;20049;-66
2022/05/11 06:34:53;;;;;;;11.68;5.03;;;;;;;21.38;45.61;100210.88;5076599;28;20111;-66
2022/05/11 06:37:20;;;;;;;9.68;5.35;;;;;;;21.52;45.53;100209.88;5072741;28;20564;-66
2022/05/11 06:39:46;;;;;;;10.60;4.80;;;;;;;21.67;45.03;100207.13;5074771;28;21191;-66
2022/05/11 06:42:13;;;;;;;6.07;4.22;;;;;;;21.83;45.10;100200.56;5074669;28;20036;-65
2022/05/11 06:44:39;;;;;;;9.40;5.28;;;;;;;22.01;44.86;100200.19;5071998;28;20912;-65
2022/05/11 06:47:05;;;;;;;7.78;4.78;;;;;;;22.17;44.54;100203.50;5076683;28;20036;-65
2022/05/11 06:49:32;;;;;;;7.57;4.65;;;;;;;22.35;44.11;100206.69;5073867;28;20080;-66
2022/05/11 06:51:58;;;;;;;7.40;4.72;;;;;;;22.42;44.16;100202.56;5074662;28;20036;-65
2022/05/11 06:59:54;;;;;;;10.40;4.30;;;;;;;22.77;43.80;100202.59;5075070;28;20047;-66
2022/05/11 07:02:20;;;;;;;6.57;3.95;;;;;;;23.02;43.61;100198.97;5064440;28;20856;-66
2022/05/11 07:04:45;;;;;;;7.53;4.63;;;;;;;23.23;43.17;100209.88;5076527;28;20051;-66
2022/05/11 07:07:11;;;;;;;11.35;4.82;;;;;;;23.42;43.09;100209.31;5073908;28;20051;-66
2022/05/11 07:09:37;;;;;;;8.60;4.13;;;;;;;23.53;42.64;100205.75;5073801;28;20430;-66
2022/05/11 07:12:18;;;;;;;5.57;3.58;;;;;;;23.59;42.56;100210.66;5073457;28;20450;-66
2022/05/11 07:14:44;;;;;;;8.32;3.92;;;;;;;23.69;42.68;100214.34;5071797;28;20105;-65
2022/05/11 07:17:10;;;;;;;5.38;3.92;;;;;;;23.74;42.41;100206.81;5073224;28;20090;-65
2022/05/11 07:19:42;;;;;;;5.10;3.80;;;;;;;23.83;42.16;100216.78;5074405;28;20036;-65
2022/05/11 07:22:07;;;;;;;6.85;3.80;;;;;;;23.71;42.54;100209.72;5068978;28;20392;-65
2022/05/11 07:24:33;;;;;;;4.75;3.63;;;;;;;23.67;42.86;100232.41;5074859;28;20024;-65
2022/05/11 07:26:59;;;;;;;6.60;4.00;;;;;;;23.45;43.05;100230.50;5074445;28;20129;-65
2022/05/11 07:29:25;;;;;;;4.68;3.63;;;;;;;23.21;43.64;100227.88;5073294;28;20177;-65
2022/05/11 07:31:51;;;;;;;7.38;4.43;;;;;;;22.92;44.24;100231.94;5074066;28;20032;-66
2022/05/11 07:34:17;;;;;;;5.65;4.22;;;;;;;22.57;45.06;100238.06;5074415;28;20143;-66
2022/05/11 07:36:42;;;;;;;8.07;4.90;;;;;;;22.64;45.09;100236.66;5071934;28;20059;-66
2022/05/11 07:39:08;;;;;;;5.55;3.80;;;;;;;22.76;44.93;100233.03;5073234;28;20403;-66
2022/05/11 07:41:34;;;;;;;5.47;3.97;;;;;;;22.91;44.32;100235.59;5072312;28;20478;-66
2022/05/11 07:43:59;;;;;;;5.13;3.70;;;;;;;23.08;43.98;100235.16;5072394;28;20039;-66
2022/05/11 07:46:26;;;;;;;4.72;3.45;;;;;;;23.04;44.44;100228.31;5072870;28;20482;-66
2022/05/11 07:48:52;;;;;;;5.13;3.22;;;;;;;23.06;44.79;100234.41;5069100;28;20033;-66
2022/05/11 07:51:17;;;;;;;4.22;3.05;;;;;;;23.17;44.27;100230.91;5072938;28;20416;-66
2022/05/11 07:53:44;;;;;;;4.78;3.63;;;;;;;23.42;43.91;100235.25;5070962;28;20033;-66
2022/05/11 08:01:38;;;;;;;7.28;4.22;;;;;;;23.72;43.44;100234.72;5070245;28;20128;-66
2022/05/11 08:04:04;;;;;;;6.30;4.00;;;;;;;23.84;43.06;100237.28;5071019;28;20107;-65
2022/05/11 08:06:29;;;;;;;6.32;3.65;;;;;;;23.58;43.38;100235.78;5070380;28;20040;-66
2022/05/11 08:08:55;;;;;;;9.07;4.05;;;;;;;23.27;44.22;100235.47;5032632;28;20029;-67
2022/05/11 08:11:20;;;;;;;5.00;3.78;;;;;;;23.22;44.16;100240.34;5041147;28;20032;-67
2022/05/11 08:13:45;;;;;;;28.20;3.38;;;;;;;22.92;45.08;100237.28;5069778;28;20480;-66
2022/05/11 08:16:11;;;;;;;5.25;3.35;;;;;;;22.99;44.66;100234.03;5073527;28;20116;-66
2022/05/11 08:18:36;;;;;;;5.00;3.80;;;;;;;22.98;44.84;100229.66;5072878;28;20119;-66
2022/05/11 08:21:02;;;;;;;6.55;3.80;;;;;;;22.74;45.32;100242.16;5072979;28;20078;-66
2022/05/11 08:23:28;;;;;;;5.95;3.80;;;;;;;22.69;45.58;100245.19;5071894;28;20635;-66
2022/05/11 08:25:57;;;;;;;7.22;3.70;;;;;;;22.63;46.41;100237.63;5070759;28;20041;-66
2022/05/11 08:28:24;;;;;;;6.43;3.72;;;;;;;22.41;47.06;100240.16;5071132;28;20546;-66
2022/05/11 08:33:37;;;;;;;3.78;2.78;;;;;;;21.99;49.57;100240.44;5068301;28;20040;-67
2022/05/11 08:36:12;;;;;;;9.90;3.33;;;;;;;22.12;50.78;100237.75;5071212;28;20024;-66
2022/05/11 08:38:41;;;;;;;5.20;3.25;;;;;;;22.46;49.30;100233.50;5071239;28;20517;-66
2022/05/11 08:41:26;;;;;;;4.10;3.00;;;;;;;22.84;48.88;100229.78;5069949;28;20041;-67
2022/05/11 08:43:56;;;;;;;4.22;2.58;;;;;;;23.01;48.57;100226.72;5071471;28;20041;-67
2022/05/11 08:46:44;;;;;;;6.63;3.10;;;;;;;23.12;47.99;100225.91;5070626;28;20115;-66
2022/05/11 08:49:41;;;;;;;4.10;3.13;;;;;;;23.49;47.05;100221.25;5072475;28;20468;-66
2022/05/11 08:52:31;;;;;;;4.35;3.00;;;;;;;23.63;46.92;100233.59;5063906;28;20127;-67
2022/05/11 08:55:27;;;;;;;5.78;4.00;;;;;;;23.48;45.53;100230.25;5069403;28;20034;-67
2022/05/11 08:57:55;;;;;;;5.40;3.15;;;;;;;23.59;46.46;100227.59;5071697;28;20059;-67
2022/05/11 09:00:22;;;;;;;6.78;3.58;;;;;;;23.54;45.96;100232.47;5072122;28;20032;-67
2022/05/11 09:02:51;;;;;;;5.35;4.28;;;;;;;23.38;45.71;100231.09;5071075;28;20090;-67
2022/05/11 09:05:21;;;;;;;7.35;3.35;;;;;;;23.34;45.20;100228.66;5067393;28;20040;-67
2022/05/11 09:07:49;;;;;;;5.32;3.38;;;;;;;23.45;45.33;100235.84;5066735;28;20040;-66
2022/05/11 09:10:23;;;;;;;4.20;2.58;;;;;;;23.38;43.72;100242.69;5052947;28;20059;-67
2022/05/11 09:12:53;;;;;;;4.65;2.88;;;;;;;23.30;44.63;100237.91;5068870;28;20032;-67
2022/05/11 09:15:19;;;;;;;2.90;2.55;;;;;;;22.98;45.35;100228.78;5071107;28;20456;-67
2022/05/11 09:17:44;;;;;;;5.53;2.95;;;;;;;23.16;45.29;100230.06;5070746;28;20090;-67
2022/05/11 09:20:14;;;;;;;10.05;2.78;;;;;;;23.00;45.55;100222.34;5071484;28;20055;-67
2022/05/11 09:22:43;;;;;;;3.58;2.75;;;;;;;23.26;44.68;100228.41;5070014;28;20044;-67
2022/05/11 09:25:21;;;;;;;4.63;3.00;;;;;;;23.24;44.52;100224.97;5049352;28;20455;-67
2022/05/11 09:27:48;;;;;;;3.72;2.70;;;;;;;23.36;44.91;100234.75;5075501;28;20179;-66
2022/05/11 09:30:17;;;;;;;5.35;2.75;;;;;;;23.15;44.80;100232.88;5052235;28;20148;-67
2022/05/11 09:32:44;;;;;;;4.07;2.42;;;;;;;22.89;45.52;100230.28;5071171;28;20046;-66
2022/05/11 09:35:39;;;;;;;14.90;3.58;;;;;;;23.32;45.90;100237.78;5067223;28;20063;-67
2022/05/11 09:38:07;;;;;;;4.03;2.88;;;;;;;23.41;44.51;100238.91;5063714;28;20392;-66
2022/05/11 09:40:48;;;;;;;4.88;3.15;;;;;;;23.11;44.13;100232.25;5068977;28;20476;-67
2022/05/11 09:43:36;;;;;;;3.80;2.65;;;;;;;23.39;44.15;100230.13;5068186;28;20055;-67
2022/05/11 09:46:28;;;;;;;5.63;2.92;;;;;;;23.51;43.41;100223.81;5068063;28;20087;-67
2022/05/11 09:49:06;;;;;;;4.13;3.08;;;;;;;23.53;43.45;100221.84;5067681;28;20101;-67
2022/05/11 09:51:47;;;;;;;6.03;3.60;;;;;;;23.41;43.17;100222.81;5069777;28;20112;-67
2022/05/11 09:54:18;;;;;;;4.18;2.55;;;;;;;23.79;43.48;100209.97;5068375;28;20048;-67
2022/05/11 09:57:09;;;;;;;5.85;2.85;;;;;;;23.72;43.63;100219.47;5070210;28;20032;-67
2022/05/11 09:59:49;;;;;;;3.80;2.30;;;;;;;23.79;43.68;100212.66;5065391;28;20120;-67
2022/05/11 10:02:38;;;;;;;4.45;2.53;;;;;;;23.85;43.42;100212.16;5076085;28;20059;-67
2022/05/11 10:05:06;;;;;;;4.85;2.25;;;;;;;24.03;43.42;100211.66;5074351;28;20040;-67
2022/05/11 10:07:37;;;;;;;4.38;2.30;;;;;;;24.03;41.95;100206.31;5074827;28;20052;-67
2022/05/11 10:10:22;;;;;;;2.45;2.17;;;;;;;23.93;40.11;100202.63;5065615;28;20032;-67
2022/05/11 10:12:48;;;;;;;3.67;2.20;;;;;;;23.84;41.82;100193.50;5072733;28;20395;-67
2022/05/11 10:21:53;;;;;;;4.45;2.28;;;;;;;23.71;40.93;100198.16;5075668;28;20043;-67
2022/05/11 10:24:31;;;;;;;3.35;1.73;;;;;;;23.26;41.20;100187.31;5074346;28;20039;-67
2022/05/11 10:27:03;;;;;;;4.03;2.00;;;;;;;23.13;40.80;100184.75;5074946;28;20040;-67
2022/05/11 10:29:31;;;;;;;5.55;2.03;;;;;;;23.12;42.04;100188.41;5073318;28;20064;-67
2022/05/11 10:32:12;;;;;;;17.65;2.20;;;;;;;23.40;41.49;100196.97;5074027;28;20051;-66
2022/05/11 10:35:39;;;;;;;3.42;1.90;;;;;;;23.58;40.54;100192.88;5072070;28;20056;-68
2022/05/11 10:38:25;;;;;;;5.05;1.80;;;;;;;23.79;40.50;100191.19;5033676;28;20032;-66
2022/05/11 10:41:28;;;;;;;3.53;2.15;;;;;;;23.96;40.76;100192.53;5056039;28;20034;-67
2022/05/11 10:44:02;;;;;;;4.30;2.13;;;;;;;23.95;40.81;100198.88;5069494;28;20101;-67
2022/05/11 10:46:38;;;;;;;3.40;1.60;;;;;;;23.93;42.22;100202.63;5075715;28;20436;-67
2022/05/11 10:49:32;;;;;;;3.22;2.42;;;;;;;24.01;41.10;100197.50;5074515;28;20067;-67
2022/05/11 10:52:29;;;;;;;3.65;2.63;;;;;;;23.83;41.29;100202.53;5075618;28;20081;-66
2022/05/11 10:55:01;;;;;;;3.10;2.28;;;;;;;23.83;42.78;100192.66;5080897;28;20126;-67
2022/05/11 10:57:40;;;;;;;4.00;2.30;;;;;;;23.62;41.63;100188.97;5084007;28;20050;-66
2022/05/11 11:00:09;;;;;;;3.55;2.10;;;;;;;23.58;41.82;100187.50;5073416;28;20131;-66
2022/05/11 11:02:58;;;;;;;2.03;1.60;;;;;;;23.47;40.85;100184.81;5073758;28;20072;-66
2022/05/11 11:05:44;;;;;;;2.47;1.73;;;;;;;23.52;41.29;100185.28;5073487;28;20036;-67
2022/05/11 11:08:40;;;;;;;6.13;1.95;;;;;;;23.60;40.47;100190.91;5074960;28;20078;-67
2022/05/11 11:11:27;;;;;;;2.42;1.75;;;;;;;23.79;41.02;100195.72;5069270;28;20036;-65
2022/05/11 11:14:00;;;;;;;4.15;1.92;;;;;;;23.99;39.77;100196.78;5072917;28;20036;-68
2022/05/11 11:16:38;;;;;;;4.30;1.73;;;;;;;24.55;38.76;100199.38;5075422;28;20031;-68
2022/05/11 11:19:06;;;;;;;2.65;1.75;;;;;;;24.95;39.02;100188.00;5072638;28;20043;-68
2022/05/11 11:21:32;;;;;;;4.00;1.85;;;;;;;25.23;38.54;100195.44;5074100;28;20024;-67
2022/05/11 11:24:26;;;;;;;3.92;1.70;;;;;;;25.75;36.80;100185.50;5057521;28;20480;-67
2022/05/11 11:27:08;;;;;;;3.42;2.08;;;;;;;25.99;36.15;100178.97;5072823;28;20465;-68
2022/05/11 11:29:38;;;;;;;2.83;1.75;;;;;;;26.37;36.03;100180.03;5071808;28;20205;-67
2022/05/11 11:32:14;;;;;;;2.60;1.38;;;;;;;26.67;35.79;100174.59;5073390;28;20546;-67
2022/05/11 11:34:43;;;;;;;4.03;2.33;;;;;;;26.73;35.53;100165.94;5073173;28;20063;-66
2022/05/11 11:37:27;;;;;;;2.25;1.60;;;;;;;26.80;35.03;100158.13;5075537;28;20028;-66
2022/05/11 11:40:13;;;;;;;2.92;1.60;;;;;;;26.71;35.79;100165.22;5070378;28;20059;-67
2022/05/11 11:42:41;;;;;;;2.97;1.83;;;;;;;26.64;35.65;100161.38;5070017;28;20033;-66
2022/05/11 11:45:11;;;;;;;3.90;1.83;;;;;;;26.40;36.11;100160.91;5070896;28;20041;-66
2022/05/11 11:47:49;;;;;;;5.47;1.58;;;;;;;26.12;35.96;100149.97;5072741;28;20024;-66
2022/05/11 11:50:53;;;;;;;2.70;1.80;;;;;;;26.10;36.20;100154.66;5072857;28;20094;-67
2022/05/11 11:53:41;;;;;;;2.40;1.60;;;;;;;26.52;34.91;100162.50;5072954;28;20087;-68
2022/05/11 11:56:25;;;;;;;2.70;1.88;;;;;;;26.82;34.97;100155.31;5071561;28;20542;-67
2022/05/11 11:59:10;;;;;;;4.22;1.70;;;;;;;26.92;34.13;100153.44;5070734;28;20032;-66
2022/05/11 12:01:39;;;;;;;1.90;1.50;;;;;;;27.01;35.07;100136.41;5071188;28;20036;-68
2022/05/11 12:04:21;;;;;;;2.78;2.00;;;;;;;26.90;34.48;100136.56;5070880;28;20044;-67
2022/05/11 12:15:26;;;;;;;2.33;1.75;;;;;;;27.72;32.78;100131.34;5071544;28;20048;-67
2022/05/11 12:17:51;;;;;;;5.72;1.65;;;;;;;27.85;33.19;100119.38;5071650;28;20040;-66